createdAt,value
2022-11-21T00:01:16.640Z,8.92
2022-11-21T00:03:45.791Z,8.96
2022-11-21T00:06:13.618Z,9.03
2022-11-21T00:08:41.451Z,8.98
2022-11-21T00:11:09.143Z,8.96
2022-11-21T00:13:37.225Z,8.88
2022-11-21T00:16:06.022Z,9.03
2022-11-21T00:18:34.687Z,9.00
2022-11-21T00:21:07.030Z,9.00
2022-11-21T00:23:35.135Z,8.93
2022-11-21T00:26:05.585Z,8.89
2022-11-21T00:28:33.439Z,9.00
2022-11-21T00:31:01.159Z,9.05
2022-11-21T00:33:28.924Z,9.11
2022-11-21T00:35:56.717Z,9.06
2022-11-21T00:38:25.826Z,9.00
2022-11-21T00:40:53.517Z,9.00
2022-11-21T00:43:21.251Z,9.04
2022-11-21T00:45:49.006Z,9.03
2022-11-21T00:48:16.803Z,9.00
2022-11-21T00:50:44.511Z,8.93
2022-11-21T00:53:12.206Z,9.02
2022-11-21T00:55:41.345Z,8.95
2022-11-21T00:58:09.131Z,8.99
2022-11-21T01:00:37.030Z,8.92
2022-11-21T01:03:04.766Z,8.95
2022-11-21T01:05:33.162Z,8.74
2022-11-21T01:08:00.908Z,8.83
2022-11-21T01:10:28.629Z,8.86
2022-11-21T01:12:57.669Z,8.85
2022-11-21T01:15:25.401Z,8.90
2022-11-21T01:17:53.193Z,8.87
2022-11-21T01:20:20.956Z,8.94
2022-11-21T01:22:48.775Z,8.87
2022-11-21T01:25:16.661Z,8.85
2022-11-21T01:27:44.314Z,8.90
2022-11-21T01:30:14.638Z,8.80
2022-11-21T01:32:42.318Z,8.82
2022-11-21T01:35:10.522Z,8.86
2022-11-21T01:37:38.255Z,8.79
2022-11-21T01:40:06.778Z,8.83
2022-11-21T01:42:50.049Z,8.75
2022-11-21T01:46:03.492Z,8.82
2022-11-21T01:48:39.688Z,8.83
2022-11-21T01:51:11.998Z,8.86
2022-11-21T01:53:41.470Z,8.89
2022-11-21T01:56:10.073Z,8.94
2022-11-21T01:58:41.062Z,8.91
2022-11-21T02:01:09.355Z,8.80
2022-11-21T02:03:42.961Z,8.79
2022-11-21T02:06:12.939Z,8.79
2022-11-21T02:08:43.712Z,8.82
2022-11-21T02:11:20.424Z,8.76
2022-11-21T02:13:48.201Z,8.81
2022-11-21T02:16:15.978Z,8.80
2022-11-21T02:18:45.351Z,8.79
2022-11-21T02:21:22.818Z,8.82
2022-11-21T02:24:00.545Z,8.87
2022-11-21T02:26:30.345Z,8.83
2022-11-21T02:28:59.120Z,8.85
2022-11-21T02:31:26.866Z,8.87
2022-11-21T02:33:54.656Z,8.81
2022-11-21T02:36:36.675Z,8.86
2022-11-21T02:39:06.394Z,8.91
2022-11-21T02:41:38.853Z,8.93
2022-11-21T02:44:10.486Z,8.98
2022-11-21T02:46:48.480Z,8.96
2022-11-21T02:49:20.660Z,8.98
2022-11-21T02:51:49.177Z,8.93
2022-11-21T02:54:16.903Z,8.94
2022-11-21T02:56:45.986Z,8.92
2022-11-21T02:59:13.732Z,8.94
2022-11-21T03:01:41.528Z,8.97
2022-11-21T03:04:09.308Z,8.95
2022-11-21T03:06:36.996Z,8.89
2022-11-21T03:09:04.910Z,8.87
2022-11-21T03:11:32.712Z,8.90
2022-11-21T03:14:01.952Z,8.88
2022-11-21T03:16:29.753Z,8.69
2022-11-21T03:18:57.889Z,8.86
2022-11-21T03:21:25.664Z,8.90
2022-11-21T03:23:53.425Z,8.84
2022-11-21T03:26:21.262Z,8.93
2022-11-21T03:28:49.008Z,8.92
2022-11-21T03:31:18.729Z,8.65
2022-11-21T03:33:46.486Z,8.98
2022-11-21T03:36:14.792Z,8.92
2022-11-21T03:38:42.515Z,8.88
2022-11-21T03:41:29.329Z,8.73
2022-11-21T03:43:57.366Z,8.81
2022-11-21T03:46:26.810Z,8.80
2022-11-21T03:48:54.699Z,8.55
2022-11-21T03:51:23.227Z,8.77
2022-11-21T03:53:51.373Z,8.70
2022-11-21T03:56:19.178Z,8.78
2022-11-21T03:58:47.470Z,8.79
2022-11-21T04:01:16.198Z,8.80
2022-11-21T04:03:46.335Z,8.69
2022-11-21T04:06:15.706Z,8.82
2022-11-21T04:08:43.807Z,8.81
2022-11-21T04:11:11.782Z,8.85
2022-11-21T04:13:39.980Z,8.88
2022-11-21T04:16:07.869Z,8.90
2022-11-21T04:18:35.967Z,8.87
2022-11-21T04:21:06.832Z,8.89
2022-11-21T04:23:34.671Z,7.97
2022-11-21T04:26:02.740Z,8.90
2022-11-21T04:28:31.287Z,8.80
2022-11-21T04:31:08.592Z,8.84
2022-11-21T04:33:38.654Z,8.86
2022-11-21T04:36:08.786Z,8.84
2022-11-21T04:38:36.757Z,8.82
2022-11-21T04:41:04.982Z,8.81
2022-11-21T04:43:32.948Z,8.85
2022-11-21T04:46:00.698Z,8.84
2022-11-21T04:48:28.488Z,8.72
2022-11-21T04:50:56.290Z,8.84
2022-11-21T04:53:25.466Z,8.86
2022-11-21T04:55:53.310Z,8.81
2022-11-21T04:58:21.088Z,8.80
2022-11-21T05:00:49.033Z,8.69
2022-11-21T05:03:16.897Z,8.78
2022-11-21T05:05:44.670Z,8.80
2022-11-21T05:08:12.425Z,8.79
2022-11-21T05:10:55.552Z,8.81
2022-11-21T05:13:23.341Z,8.80
2022-11-21T05:15:57.103Z,8.80
2022-11-21T05:18:24.928Z,8.81
2022-11-21T05:20:52.785Z,8.83
2022-11-21T05:23:20.585Z,8.80
2022-11-21T05:25:49.794Z,8.87
2022-11-21T05:28:17.579Z,8.86
2022-11-21T05:30:45.327Z,8.89
2022-11-21T05:33:14.137Z,8.87
2022-11-21T05:35:44.046Z,8.86
2022-11-21T05:38:12.103Z,8.87
2022-11-21T05:40:40.126Z,8.83
2022-11-21T05:43:29.002Z,8.95
2022-11-21T05:45:56.787Z,8.95
2022-11-21T05:48:24.543Z,8.94
2022-11-21T05:50:52.332Z,8.90
2022-11-21T05:53:21.158Z,8.75
2022-11-21T05:55:49.484Z,8.78
2022-11-21T05:58:18.747Z,8.89
2022-11-21T06:00:46.547Z,8.84
2022-11-21T06:03:28.459Z,8.88
2022-11-21T06:06:01.034Z,8.80
2022-11-21T06:08:29.533Z,8.89
2022-11-21T06:10:57.426Z,8.90
2022-11-21T06:13:26.560Z,8.89
2022-11-21T06:15:56.958Z,8.89
2022-11-21T06:18:24.666Z,8.89
2022-11-21T06:20:52.618Z,8.85
2022-11-21T06:23:20.413Z,8.84
2022-11-21T06:25:48.183Z,8.84
2022-11-21T06:28:15.879Z,8.76
2022-11-21T06:30:46.241Z,8.84
2022-11-21T06:33:14.012Z,8.90
2022-11-21T06:35:41.750Z,8.88
2022-11-21T06:38:09.532Z,8.84
2022-11-21T06:40:37.222Z,8.84
2022-11-21T06:43:05.006Z,8.87
2022-11-21T06:45:32.855Z,8.89
2022-11-21T06:48:04.562Z,8.86
2022-11-21T06:50:32.680Z,8.85
2022-11-21T06:53:00.768Z,8.89
2022-11-21T06:55:29.833Z,8.63
2022-11-21T06:57:59.082Z,8.88
2022-11-21T07:00:27.964Z,8.79
2022-11-21T07:03:01.559Z,8.81
2022-11-21T07:05:32.275Z,8.82
2022-11-21T07:08:00.962Z,8.84
2022-11-21T07:10:29.330Z,8.87
2022-11-21T07:13:15.917Z,8.82
2022-11-21T07:15:43.842Z,8.81
2022-11-21T07:18:11.730Z,8.75
2022-11-21T07:20:41.676Z,8.59
2022-11-21T07:23:10.020Z,8.77
2022-11-21T07:25:39.473Z,8.79
2022-11-21T07:28:08.716Z,8.77
2022-11-21T07:30:37.210Z,8.85
2022-11-21T07:33:07.065Z,8.87
2022-11-21T07:35:35.177Z,8.91
2022-11-21T07:38:05.325Z,8.87
2022-11-21T07:40:34.680Z,8.89
2022-11-21T07:43:07.962Z,8.76
2022-11-21T07:45:38.814Z,8.93
2022-11-21T07:48:08.380Z,8.93
2022-11-21T07:50:36.581Z,8.96
2022-11-21T07:53:07.127Z,8.92
2022-11-21T07:55:40.387Z,8.77
2022-11-21T07:58:09.911Z,8.91
2022-11-21T08:00:39.613Z,8.80
2022-11-21T08:03:08.121Z,8.89
2022-11-21T08:05:37.521Z,8.96
2022-11-21T08:08:07.095Z,8.96
2022-11-21T08:10:37.585Z,8.94
2022-11-21T08:13:05.341Z,9.00
2022-11-21T08:15:33.198Z,8.96
2022-11-21T08:18:08.592Z,9.06
2022-11-21T08:20:36.349Z,9.06
2022-11-21T08:23:06.059Z,9.03
2022-11-21T08:25:33.889Z,9.00
2022-11-21T08:28:02.676Z,8.82
2022-11-21T08:30:31.020Z,8.88
2022-11-21T08:32:59.031Z,8.84
2022-11-21T08:35:27.021Z,8.79
2022-11-21T08:37:58.115Z,8.78
2022-11-21T08:40:28.750Z,8.84
2022-11-21T08:42:59.620Z,8.73
2022-11-21T08:45:27.752Z,8.80
2022-11-21T08:47:55.992Z,8.78
2022-11-21T08:50:24.857Z,8.84
2022-11-21T08:52:53.049Z,8.90
2022-11-21T08:55:22.995Z,8.92
2022-11-21T08:57:52.106Z,8.88
2022-11-21T09:00:20.170Z,8.98
2022-11-21T09:02:47.849Z,8.56
2022-11-21T09:05:15.568Z,8.96
2022-11-21T09:07:43.350Z,8.98
2022-11-21T09:10:11.616Z,8.96
2022-11-21T09:12:39.377Z,8.96
2022-11-21T09:15:28.625Z,8.85
2022-11-21T09:18:05.120Z,9.06
2022-11-21T09:20:34.182Z,9.10
2022-11-21T09:23:05.811Z,9.16
2022-11-21T09:25:34.228Z,9.21
2022-11-21T09:28:03.639Z,9.31
2022-11-21T09:30:33.225Z,9.38
2022-11-21T09:33:02.588Z,9.39
2022-11-21T09:35:30.645Z,9.42
2022-11-21T09:37:58.813Z,9.43
2022-11-21T09:40:26.841Z,9.43
2022-11-21T09:43:07.744Z,9.38
2022-11-21T09:45:41.884Z,9.40
2022-11-21T09:48:13.872Z,9.42
2022-11-21T09:50:48.223Z,9.39
2022-11-21T09:53:23.639Z,9.50
2022-11-21T09:55:56.179Z,9.37
2022-11-21T09:58:32.169Z,9.45
2022-11-21T10:01:01.672Z,9.55
2022-11-21T10:03:32.762Z,9.50
2022-11-21T10:06:04.794Z,9.55
2022-11-21T10:08:42.386Z,9.69
2022-11-21T10:11:20.320Z,9.75
2022-11-21T10:14:05.065Z,9.82
2022-11-21T10:16:43.255Z,9.95
2022-11-21T10:19:24.552Z,9.95
2022-11-21T10:22:09.153Z,9.95
2022-11-21T10:24:51.308Z,9.93
2022-11-21T10:27:28.406Z,9.91
2022-11-21T10:30:02.136Z,9.92
2022-11-21T10:32:36.012Z,9.94
2022-11-21T10:35:13.872Z,9.90
2022-11-21T10:37:47.437Z,9.90
2022-11-21T10:40:34.177Z,9.97
2022-11-21T10:43:26.349Z,10.03
2022-11-21T10:45:54.273Z,10.08
2022-11-21T10:48:23.381Z,10.10
2022-11-21T10:51:13.536Z,10.02
2022-11-21T10:54:03.241Z,9.88
2022-11-21T10:56:36.024Z,9.95
2022-11-21T10:59:14.266Z,10.00
2022-11-21T11:01:54.931Z,10.06
2022-11-21T11:04:28.552Z,10.02
2022-11-21T11:06:59.930Z,9.94
2022-11-21T11:09:31.024Z,10.06
2022-11-21T11:12:51.795Z,10.15
2022-11-21T11:15:22.109Z,10.19
2022-11-21T11:17:56.278Z,10.23
2022-11-21T11:20:35.109Z,10.26
2022-11-21T11:23:17.067Z,10.38
2022-11-21T11:25:48.306Z,10.47
2022-11-21T11:28:16.202Z,10.58
2022-11-21T11:30:44.587Z,10.67
2022-11-21T11:33:33.165Z,10.67
2022-11-21T11:36:12.942Z,10.72
2022-11-21T11:38:43.876Z,10.80
2022-11-21T11:41:20.919Z,10.78
2022-11-21T11:44:26.874Z,10.73
2022-11-21T11:47:19.995Z,10.81
2022-11-21T11:50:08.892Z,10.84
2022-11-21T11:52:45.012Z,10.82
2022-11-21T11:55:20.815Z,10.73
2022-11-21T11:57:51.715Z,10.68
2022-11-21T12:00:31.656Z,10.64
2022-11-21T12:03:06.015Z,10.64
2022-11-21T12:05:34.204Z,10.67
2022-11-21T12:11:32.500Z,10.63
2022-11-21T12:14:08.225Z,10.63
2022-11-21T12:16:37.882Z,10.63
2022-11-21T12:19:13.627Z,10.63
2022-11-21T12:21:41.615Z,10.61
2022-11-21T12:24:12.694Z,10.58
2022-11-21T12:26:56.783Z,10.65
2022-11-21T12:29:38.213Z,10.61
2022-11-21T12:32:25.762Z,10.62
2022-11-21T12:35:07.279Z,10.64
2022-11-21T12:37:47.194Z,10.52
2022-11-21T12:40:33.769Z,10.53
2022-11-21T12:43:11.414Z,10.53
2022-11-21T12:45:47.190Z,10.56
2022-11-21T12:48:45.392Z,10.49
2022-11-21T12:51:53.532Z,10.49
2022-11-21T12:54:46.272Z,10.54
2022-11-21T12:57:17.087Z,10.55
2022-11-21T12:59:58.001Z,10.54
2022-11-21T13:02:39.703Z,10.56
2022-11-21T13:05:13.664Z,10.54
2022-11-21T13:07:44.737Z,10.57
2022-11-21T13:10:18.257Z,10.56
2022-11-21T13:12:52.944Z,10.60
2022-11-21T13:15:27.352Z,10.58
2022-11-21T13:17:57.815Z,10.61
2022-11-21T13:20:32.028Z,10.57
2022-11-21T13:23:01.091Z,10.54
2022-11-21T13:25:40.462Z,10.56
2022-11-21T13:28:32.800Z,10.61
2022-11-21T13:31:02.703Z,10.42
2022-11-21T13:33:53.781Z,10.53
2022-11-21T13:36:42.844Z,10.55
2022-11-21T13:39:29.646Z,10.49
2022-11-21T13:42:34.891Z,10.47
2022-11-21T13:45:40.399Z,10.52
2022-11-21T13:48:40.183Z,10.53
2022-11-21T13:51:37.643Z,10.54
2022-11-21T13:54:37.844Z,10.52
2022-11-21T13:57:25.625Z,10.53
2022-11-21T14:00:18.526Z,10.54
2022-11-21T14:03:08.690Z,10.46
2022-11-21T14:06:00.474Z,10.45
2022-11-21T14:08:30.144Z,10.39
2022-11-21T14:10:59.102Z,10.38
2022-11-21T14:13:30.988Z,10.40
2022-11-21T14:16:14.633Z,10.36
2022-11-21T14:18:47.184Z,10.33
2022-11-21T14:21:22.059Z,10.30
2022-11-21T14:23:50.060Z,10.26
2022-11-21T14:26:21.451Z,10.23
2022-11-21T14:28:52.870Z,10.12
2022-11-21T14:31:20.999Z,10.14
2022-11-21T14:33:50.275Z,10.17
2022-11-21T14:36:20.445Z,10.07
2022-11-21T14:39:07.694Z,10.10
2022-11-21T14:41:39.748Z,10.03
2022-11-21T14:44:19.769Z,10.01
2022-11-21T14:46:48.509Z,10.07
2022-11-21T14:49:29.263Z,10.07
2022-11-21T14:52:13.580Z,10.01
2022-11-21T14:55:22.469Z,9.96
2022-11-21T14:57:42.660Z,9.94
2022-11-21T15:00:51.403Z,9.82
2022-11-21T15:03:20.836Z,9.81
2022-11-21T15:06:08.249Z,9.80
2022-11-21T15:11:35.952Z,9.78
2022-11-21T15:14:16.781Z,9.74
2022-11-21T15:16:47.265Z,9.77
2022-11-21T15:19:21.489Z,9.68
2022-11-21T15:21:51.918Z,9.68
2022-11-21T15:24:30.415Z,9.66
2022-11-21T15:26:58.570Z,9.65
2022-11-21T15:29:26.962Z,9.63
2022-11-21T15:32:09.155Z,9.55
2022-11-21T15:34:38.327Z,9.63
2022-11-21T15:37:16.289Z,9.63
2022-11-21T15:39:44.696Z,9.58
2022-11-21T15:42:45.469Z,9.48
2022-11-21T15:45:26.891Z,9.44
2022-11-21T15:47:55.643Z,9.44
2022-11-21T15:50:26.232Z,9.50
2022-11-21T15:52:55.418Z,9.53
2022-11-21T15:55:25.781Z,9.48
2022-11-21T15:57:53.458Z,9.48
2022-11-21T16:00:21.421Z,9.49
2022-11-21T16:02:49.431Z,9.46
2022-11-21T16:05:19.584Z,9.44
2022-11-21T16:07:48.555Z,9.34
2022-11-21T16:10:24.273Z,9.44
2022-11-21T16:12:55.557Z,9.44
2022-11-21T16:15:23.551Z,9.38
2022-11-21T16:17:52.783Z,9.29
2022-11-21T16:20:20.568Z,9.39
2022-11-21T16:22:49.927Z,9.34
2022-11-21T16:25:19.269Z,9.42
2022-11-21T16:27:47.226Z,9.40
2022-11-21T16:30:15.744Z,9.42
2022-11-21T16:32:43.729Z,9.39
2022-11-21T16:35:11.480Z,9.37
2022-11-21T16:37:39.699Z,9.40
2022-11-21T16:40:09.869Z,9.37
2022-11-21T16:42:38.919Z,9.39
2022-11-21T16:45:07.238Z,9.36
2022-11-21T16:47:37.210Z,9.38
2022-11-21T16:50:05.808Z,9.32
2022-11-21T16:52:35.730Z,9.34
2022-11-21T16:55:04.793Z,9.37
2022-11-21T16:57:35.174Z,9.40
2022-11-21T17:00:05.248Z,9.40
2022-11-21T17:02:33.039Z,9.35
2022-11-21T17:05:00.923Z,9.35
2022-11-21T17:07:28.796Z,9.40
2022-11-21T17:09:56.627Z,9.41
2022-11-21T17:12:24.398Z,9.36
2022-11-21T17:14:52.540Z,9.29
2022-11-21T17:17:21.663Z,9.40
2022-11-21T17:19:49.426Z,9.38
2022-11-21T17:22:21.606Z,9.37
2022-11-21T17:24:53.124Z,9.37
2022-11-21T17:27:21.534Z,9.35
2022-11-21T17:29:49.294Z,9.37
2022-11-21T17:32:17.544Z,9.32
2022-11-21T17:34:46.805Z,9.32
2022-11-21T17:37:14.847Z,9.33
2022-11-21T17:39:42.556Z,9.30
2022-11-21T17:42:10.314Z,9.32
2022-11-21T17:44:38.141Z,9.30
2022-11-21T17:47:05.897Z,9.29
2022-11-21T17:49:37.103Z,9.30
2022-11-21T17:52:09.069Z,9.30
2022-11-21T17:54:36.927Z,9.20
2022-11-21T17:57:04.849Z,9.27
2022-11-21T17:59:34.669Z,9.18
2022-11-21T18:02:03.036Z,9.14
2022-11-21T18:04:31.206Z,9.25
2022-11-21T18:06:59.167Z,9.16
2022-11-21T18:09:28.694Z,9.16
2022-11-21T18:11:57.757Z,9.17
2022-11-21T18:14:25.703Z,9.19
2022-11-21T18:16:56.460Z,9.20
2022-11-21T18:19:24.776Z,9.20
2022-11-21T18:21:52.817Z,9.22
2022-11-21T18:24:20.810Z,9.10
2022-11-21T18:26:49.883Z,9.24
2022-11-21T18:29:35.545Z,9.23
2022-11-21T18:32:04.960Z,9.15
2022-11-21T18:34:32.705Z,9.21
2022-11-21T18:37:00.841Z,9.07
2022-11-21T18:39:28.905Z,9.21
2022-11-21T18:41:58.438Z,9.18
2022-11-21T18:44:26.269Z,9.25
2022-11-21T18:46:53.969Z,9.23
2022-11-21T18:49:21.686Z,9.19
2022-11-21T18:51:49.507Z,8.93
2022-11-21T18:54:17.299Z,9.22
2022-11-21T18:56:45.000Z,9.23
2022-11-21T18:59:14.107Z,9.22
2022-11-21T19:01:42.029Z,9.09
2022-11-21T19:04:12.320Z,9.24
2022-11-21T19:06:41.017Z,8.86
2022-11-21T19:09:08.902Z,9.21
2022-11-21T19:11:36.710Z,9.19
2022-11-21T19:14:04.698Z,9.11
2022-11-21T19:16:34.929Z,9.22
2022-11-21T19:19:32.951Z,9.11
2022-11-21T19:21:53.765Z,9.09
2022-11-21T19:24:21.486Z,9.12
2022-11-21T19:26:50.536Z,9.15
2022-11-21T19:29:18.735Z,9.17
2022-11-21T19:31:47.940Z,9.24
2022-11-21T19:34:16.705Z,9.22
2022-11-21T19:36:44.622Z,9.22
2022-11-21T19:39:12.736Z,9.21
2022-11-21T19:41:40.552Z,9.13
2022-11-21T19:44:08.402Z,9.18
2022-11-21T19:46:38.314Z,9.05
2022-11-21T19:49:08.541Z,9.07
2022-11-21T19:51:39.454Z,9.20
2022-11-21T19:54:08.688Z,9.22
2022-11-21T19:56:37.058Z,8.96
2022-11-21T19:59:05.528Z,8.91
2022-11-21T20:01:35.400Z,9.30
2022-11-21T20:04:05.089Z,9.31
2022-11-21T20:06:35.969Z,9.27
2022-11-21T20:09:05.722Z,9.20
2022-11-21T20:11:34.549Z,9.14
2022-11-21T20:14:02.349Z,9.25
2022-11-21T20:16:32.441Z,9.07
2022-11-21T20:19:02.090Z,9.23
2022-11-21T20:21:30.951Z,9.25
2022-11-21T20:24:00.319Z,9.23
2022-11-21T20:26:28.337Z,9.23
2022-11-21T20:28:56.409Z,8.95
2022-11-21T20:31:27.028Z,8.77
2022-11-21T20:36:43.465Z,9.29
2022-11-21T20:39:15.951Z,9.26
2022-11-21T20:41:44.275Z,9.01
2022-11-21T20:45:07.235Z,9.17
2022-11-21T20:47:02.913Z,9.22
2022-11-21T20:49:31.057Z,9.23
2022-11-21T20:54:48.088Z,9.22
2022-11-21T20:57:15.904Z,9.24
2022-11-21T20:59:43.877Z,9.21
2022-11-21T21:02:14.045Z,9.18
2022-11-21T21:04:42.167Z,9.20
2022-11-21T21:07:10.108Z,9.17
2022-11-21T21:09:37.949Z,9.23
2022-11-21T21:12:07.315Z,9.28
2022-11-21T21:14:35.297Z,9.23
2022-11-21T21:17:03.077Z,9.16
2022-11-21T21:19:31.062Z,9.22
2022-11-21T21:21:58.964Z,9.17
2022-11-21T21:24:28.288Z,9.22
2022-11-21T21:26:55.933Z,9.17
2022-11-21T21:29:24.993Z,9.16
2022-11-21T21:31:53.264Z,9.11
2022-11-21T21:34:24.303Z,9.12
2022-11-21T21:36:52.667Z,9.13
2022-11-21T21:39:20.442Z,8.89
2022-11-21T21:41:48.373Z,9.10
2022-11-21T21:44:17.025Z,9.15
2022-11-21T21:46:46.521Z,9.20
2022-11-21T21:49:16.698Z,9.11
2022-11-21T21:51:44.480Z,9.14
2022-11-21T21:54:18.491Z,9.02
2022-11-21T21:56:47.019Z,9.10
2022-11-21T21:59:15.720Z,9.04
2022-11-21T22:01:43.900Z,9.13
2022-11-21T22:04:15.123Z,9.00
2022-11-21T22:06:42.965Z,8.91
2022-11-21T22:09:10.821Z,9.16
2022-11-21T22:11:39.842Z,9.06
2022-11-21T22:14:11.468Z,9.17
2022-11-21T22:16:39.425Z,9.14
2022-11-21T22:19:09.718Z,9.12
2022-11-21T22:21:39.581Z,8.97
2022-11-21T22:24:29.539Z,8.98
2022-11-21T22:26:57.400Z,9.06
2022-11-21T22:29:25.264Z,8.93
2022-11-21T22:31:56.017Z,9.05
2022-11-21T22:34:26.848Z,9.06
2022-11-21T22:36:56.020Z,9.13
2022-11-21T22:39:23.825Z,9.04
2022-11-21T22:41:54.605Z,9.03
2022-11-21T22:44:24.864Z,9.03
2022-11-21T22:46:52.628Z,9.00
2022-11-21T22:49:20.439Z,9.02
2022-11-21T22:51:48.177Z,8.97
2022-11-21T22:54:17.430Z,9.06
2022-11-21T22:56:45.258Z,9.00
2022-11-21T22:59:13.694Z,8.95
2022-11-21T23:01:41.611Z,9.05
2022-11-21T23:04:13.215Z,8.88
2022-11-21T23:06:44.084Z,9.00
2022-11-21T23:09:11.988Z,9.03
2022-11-21T23:11:41.275Z,9.07
2022-11-21T23:14:09.311Z,9.04
2022-11-21T23:16:37.188Z,8.93
2022-11-21T23:19:04.984Z,8.96
2022-11-21T23:21:32.769Z,8.94
2022-11-21T23:24:00.530Z,8.91
2022-11-21T23:26:28.406Z,8.89
2022-11-21T23:28:57.652Z,9.08
2022-11-21T23:31:25.539Z,9.03
2022-11-21T23:33:53.308Z,9.05
2022-11-21T23:36:21.182Z,9.07
2022-11-21T23:38:48.943Z,9.06
2022-11-21T23:41:16.707Z,9.06
2022-11-21T23:43:44.530Z,9.08
2022-11-21T23:46:13.731Z,9.01
2022-11-21T23:48:41.492Z,8.99
2022-11-21T23:51:09.266Z,9.04
2022-11-21T23:53:37.056Z,9.01
2022-11-21T23:56:05.122Z,8.98
2022-11-21T23:58:32.897Z,9.08
